createdAt,value
2023-05-11T00:00:55.252Z,19.97
2023-05-11T00:03:23.675Z,20.63
2023-05-11T00:05:52.413Z,20.83
2023-05-11T00:08:20.355Z,20.30
2023-05-11T00:10:49.839Z,19.00
2023-05-11T00:13:18.002Z,19.00
2023-05-11T00:15:46.316Z,19.27
2023-05-11T00:18:14.262Z,29.07
2023-05-11T00:20:41.883Z,28.03
2023-05-11T00:23:10.042Z,32.30
2023-05-11T00:25:39.273Z,24.93
2023-05-11T00:28:08.516Z,33.40
2023-05-11T00:30:36.359Z,30.10
2023-05-11T00:33:04.522Z,21.13
2023-05-11T00:35:32.875Z,21.57
2023-05-11T00:38:00.890Z,22.50
2023-05-11T00:40:28.641Z,21.20
2023-05-11T00:42:56.430Z,20.13
2023-05-11T00:45:25.903Z,21.63
2023-05-11T00:47:53.730Z,21.10
2023-05-11T00:50:22.183Z,20.27
2023-05-11T00:52:50.022Z,19.20
2023-05-11T00:55:20.192Z,19.83
2023-05-11T00:57:48.497Z,17.80
2023-05-11T01:00:16.992Z,19.20
2023-05-11T01:02:47.241Z,19.00
2023-05-11T01:05:15.378Z,18.80
2023-05-11T01:07:47.576Z,19.40
2023-05-11T01:10:18.693Z,18.30
2023-05-11T01:12:49.024Z,18.90
2023-05-11T01:15:19.824Z,18.33
2023-05-11T01:17:52.545Z,19.70
2023-05-11T01:20:23.732Z,18.60
2023-05-11T01:23:03.831Z,20.73
2023-05-11T01:25:41.598Z,20.00
2023-05-11T01:28:21.403Z,19.17
2023-05-11T01:30:52.310Z,20.80
2023-05-11T01:33:23.000Z,20.70
2023-05-11T01:35:53.607Z,20.13
2023-05-11T01:38:22.747Z,20.00
2023-05-11T01:40:55.536Z,19.87
2023-05-11T01:43:24.847Z,20.23
2023-05-11T01:45:55.526Z,19.90
2023-05-11T01:48:24.646Z,18.83
2023-05-11T01:50:53.456Z,19.60
2023-05-11T01:53:23.127Z,18.80
2023-05-11T01:55:52.169Z,20.23
2023-05-11T01:58:20.162Z,20.17
2023-05-11T02:00:49.852Z,19.10
2023-05-11T02:03:20.301Z,19.60
2023-05-11T02:05:49.426Z,18.70
2023-05-11T02:08:17.876Z,20.00
2023-05-11T02:10:46.364Z,20.10
2023-05-11T02:13:15.148Z,19.60
2023-05-11T02:15:44.116Z,20.60
2023-05-11T02:18:15.118Z,21.00
2023-05-11T02:20:47.444Z,20.60
2023-05-11T02:23:15.769Z,19.73
2023-05-11T02:25:44.392Z,19.80
2023-05-11T02:28:12.594Z,20.70
2023-05-11T02:30:46.068Z,20.17
2023-05-11T02:33:18.018Z,21.70
2023-05-11T02:35:47.949Z,19.57
2023-05-11T02:38:16.422Z,21.20
2023-05-11T02:40:47.389Z,21.40
2023-05-11T02:43:19.917Z,20.97
2023-05-11T02:45:55.461Z,19.70
2023-05-11T02:48:26.202Z,20.10
2023-05-11T02:50:57.496Z,18.10
2023-05-11T02:53:28.571Z,18.50
2023-05-11T02:55:57.482Z,18.50
2023-05-11T02:58:26.326Z,18.90
2023-05-11T03:01:03.765Z,18.73
2023-05-11T03:03:32.655Z,19.00
2023-05-11T03:06:01.924Z,17.80
2023-05-11T03:08:29.962Z,18.40
2023-05-11T03:10:59.075Z,17.80
2023-05-11T03:13:27.171Z,18.10
2023-05-11T03:15:56.399Z,19.10
2023-05-11T03:18:25.039Z,18.00
2023-05-11T03:20:53.142Z,18.13
2023-05-11T03:23:23.466Z,17.20
2023-05-11T03:25:51.614Z,17.57
2023-05-11T03:28:21.016Z,16.97
2023-05-11T03:30:57.895Z,17.70
2023-05-11T03:33:25.606Z,17.83
2023-05-11T03:35:54.445Z,16.30
2023-05-11T03:38:29.004Z,16.33
2023-05-11T03:40:58.910Z,15.80
2023-05-11T03:43:28.386Z,15.30
2023-05-11T03:45:57.887Z,17.07
2023-05-11T03:48:27.529Z,15.70
2023-05-11T03:50:56.056Z,16.50
2023-05-11T03:53:24.544Z,16.90
2023-05-11T03:55:54.725Z,16.37
2023-05-11T03:58:23.160Z,17.10
2023-05-11T04:00:51.204Z,16.57
2023-05-11T04:03:19.623Z,17.23
2023-05-11T04:05:47.645Z,16.47
2023-05-11T04:08:15.670Z,15.97
2023-05-11T04:10:43.498Z,16.37
2023-05-11T04:13:12.835Z,16.27
2023-05-11T04:15:40.633Z,17.10
2023-05-11T04:18:08.569Z,16.57
2023-05-11T04:20:36.591Z,16.13
2023-05-11T04:23:04.255Z,16.37
2023-05-11T04:25:33.839Z,14.93
2023-05-11T04:28:01.590Z,15.83
2023-05-11T04:30:31.063Z,16.30
2023-05-11T04:32:58.971Z,15.30
2023-05-11T04:35:27.468Z,15.43
2023-05-11T04:37:55.446Z,15.10
2023-05-11T04:40:23.484Z,14.50
2023-05-11T04:42:51.974Z,14.50
2023-05-11T04:45:21.132Z,13.47
2023-05-11T04:47:50.488Z,14.37
2023-05-11T04:50:19.233Z,14.87
2023-05-11T04:52:48.804Z,13.83
2023-05-11T04:55:17.322Z,12.30
2023-05-11T04:57:47.071Z,13.17
2023-05-11T05:00:15.427Z,12.57
2023-05-11T05:02:43.349Z,12.40
2023-05-11T05:05:14.596Z,11.50
2023-05-11T05:07:43.648Z,10.80
2023-05-11T05:10:12.820Z,10.33
2023-05-11T05:12:40.764Z,10.80
2023-05-11T05:15:09.422Z,11.00
2023-05-11T05:17:37.228Z,11.00
2023-05-11T05:20:06.554Z,11.33
2023-05-11T05:22:35.772Z,11.77
2023-05-11T05:25:03.762Z,10.77
2023-05-11T05:27:34.900Z,11.23
2023-05-11T05:30:06.671Z,11.47
2023-05-11T05:32:34.910Z,10.47
2023-05-11T05:35:03.182Z,10.77
2023-05-11T05:37:30.890Z,10.67
2023-05-11T05:40:00.971Z,10.67
2023-05-11T05:42:28.879Z,10.83
2023-05-11T05:44:56.633Z,10.03
2023-05-11T05:47:24.979Z,10.73
2023-05-11T05:49:52.728Z,10.47
2023-05-11T05:52:20.447Z,10.20
2023-05-11T05:54:49.485Z,10.10
2023-05-11T05:57:19.031Z,10.43
2023-05-11T05:59:47.108Z,11.17
2023-05-11T06:02:19.087Z,9.10
2023-05-11T06:04:47.206Z,8.70
2023-05-11T06:07:15.508Z,8.47
2023-05-11T06:09:43.809Z,9.03
2023-05-11T06:12:11.478Z,8.03
2023-05-11T06:14:46.111Z,8.73
2023-05-11T06:17:14.004Z,7.60
2023-05-11T06:19:41.658Z,7.63
2023-05-11T06:22:10.480Z,7.13
2023-05-11T06:24:39.012Z,7.90
2023-05-11T06:27:07.067Z,7.70
2023-05-11T06:29:36.152Z,6.80
2023-05-11T06:32:07.337Z,6.90
2023-05-11T06:34:35.628Z,6.60
2023-05-11T06:37:03.691Z,6.60
2023-05-11T06:39:31.686Z,6.50
2023-05-11T06:42:03.589Z,6.27
2023-05-11T06:44:34.194Z,6.33
2023-05-11T06:47:01.940Z,6.50
2023-05-11T06:49:31.487Z,5.90
2023-05-11T06:51:59.389Z,5.80
2023-05-11T06:54:27.729Z,5.90
2023-05-11T06:56:55.712Z,5.50
2023-05-11T06:59:23.721Z,5.63
2023-05-11T07:01:51.814Z,5.27
2023-05-11T07:04:19.637Z,5.53
2023-05-11T07:06:48.691Z,4.50
2023-05-11T07:09:17.950Z,5.13
2023-05-11T07:11:45.655Z,4.80
2023-05-11T07:14:13.634Z,5.20
2023-05-11T07:16:41.673Z,5.33
2023-05-11T07:19:09.737Z,5.00
2023-05-11T07:21:37.896Z,4.30
2023-05-11T07:24:07.433Z,4.43
2023-05-11T07:26:35.086Z,4.77
2023-05-11T07:29:03.388Z,4.80
2023-05-11T07:31:32.142Z,4.77
2023-05-11T07:33:59.905Z,5.17
2023-05-11T07:36:27.958Z,4.73
2023-05-11T07:38:57.927Z,4.40
2023-05-11T07:41:27.280Z,4.47
2023-05-11T07:43:55.032Z,4.60
2023-05-11T07:46:23.187Z,4.47
2023-05-11T07:48:57.460Z,5.00
2023-05-11T07:51:32.326Z,4.40
2023-05-11T07:54:00.035Z,4.50
2023-05-11T07:56:29.147Z,4.70
2023-05-11T07:58:57.430Z,4.30
2023-05-11T08:01:25.069Z,4.83
2023-05-11T08:03:52.729Z,4.00
2023-05-11T08:06:20.804Z,4.50
2023-05-11T08:08:48.531Z,4.50
2023-05-11T08:11:16.713Z,4.70
2023-05-11T08:13:45.828Z,4.00
2023-05-11T08:16:13.590Z,4.50
2023-05-11T08:18:41.265Z,5.57
2023-05-11T08:21:09.402Z,4.83
2023-05-11T08:23:37.124Z,4.27
2023-05-11T08:26:05.270Z,4.47
2023-05-11T08:28:33.539Z,4.37
2023-05-11T08:31:03.195Z,4.40
2023-05-11T08:33:38.286Z,4.87
2023-05-11T08:36:07.583Z,4.67
2023-05-11T08:38:35.754Z,4.43
2023-05-11T08:41:04.805Z,4.57
2023-05-11T08:43:33.553Z,5.13
2023-05-11T08:46:04.333Z,4.53
2023-05-11T08:48:32.858Z,5.23
2023-05-11T08:51:00.616Z,4.30
2023-05-11T08:53:29.305Z,4.30
2023-05-11T08:55:59.054Z,3.90
2023-05-11T08:58:28.069Z,4.80
2023-05-11T09:00:56.294Z,3.90
2023-05-11T09:03:25.730Z,4.60
2023-05-11T09:05:54.928Z,6.67
2023-05-11T09:08:23.856Z,3.90
2023-05-11T09:10:52.928Z,4.50
2023-05-11T09:13:21.352Z,4.43
2023-05-11T09:15:49.275Z,4.20
2023-05-11T09:18:17.134Z,4.60
2023-05-11T09:20:47.399Z,4.13
2023-05-11T09:23:17.505Z,3.43
2023-05-11T09:25:45.692Z,3.60
2023-05-11T09:28:24.909Z,3.80
2023-05-11T09:30:53.254Z,3.80
2023-05-11T09:33:24.845Z,4.07
2023-05-11T09:35:54.245Z,3.80
2023-05-11T09:38:23.171Z,3.10
2023-05-11T09:40:52.464Z,3.53
2023-05-11T09:43:20.730Z,3.40
2023-05-11T09:45:49.778Z,3.33
2023-05-11T09:48:30.603Z,3.93
2023-05-11T09:51:29.605Z,3.40
2023-05-11T09:53:57.708Z,3.20
2023-05-11T09:56:26.299Z,3.23
2023-05-11T09:58:55.268Z,3.70
2023-05-11T10:01:30.329Z,3.80
2023-05-11T10:04:09.028Z,4.00
2023-05-11T10:06:46.934Z,2.90
2023-05-11T10:09:16.081Z,2.70
2023-05-11T10:11:47.864Z,3.33
2023-05-11T10:14:16.401Z,3.07
2023-05-11T10:16:45.764Z,4.00
2023-05-11T10:19:14.873Z,3.87
2023-05-11T10:21:42.844Z,3.17
2023-05-11T10:24:13.749Z,3.80
2023-05-11T10:26:42.385Z,3.80
2023-05-11T10:29:10.856Z,3.23
2023-05-11T10:31:39.884Z,3.23
2023-05-11T10:34:08.093Z,3.33
2023-05-11T10:36:35.928Z,3.30
2023-05-11T10:39:03.788Z,3.23
2023-05-11T10:41:40.832Z,3.30
2023-05-11T10:44:30.137Z,3.10
2023-05-11T10:47:07.377Z,3.50
2023-05-11T10:49:45.784Z,3.60
2023-05-11T10:52:23.523Z,3.47
2023-05-11T10:55:02.802Z,3.20
2023-05-11T10:57:49.192Z,2.60
2023-05-11T11:00:43.457Z,3.40
2023-05-11T11:03:12.362Z,2.90
2023-05-11T11:05:40.244Z,3.27
2023-05-11T11:08:09.254Z,4.10
2023-05-11T11:10:38.319Z,3.20
2023-05-11T11:13:06.990Z,2.90
2023-05-11T11:15:53.595Z,4.10
2023-05-11T11:18:24.023Z,3.37
2023-05-11T11:20:52.890Z,3.17
2023-05-11T11:23:38.543Z,3.30
2023-05-11T11:26:06.672Z,3.73
2023-05-11T11:28:49.574Z,3.87
2023-05-11T11:31:23.934Z,5.20
2023-05-11T11:36:58.959Z,3.70
2023-05-11T11:39:26.954Z,4.00
2023-05-11T11:42:01.113Z,3.27
2023-05-11T11:44:30.878Z,3.47
2023-05-11T11:47:12.165Z,2.73
2023-05-11T11:49:42.008Z,2.93
2023-05-11T11:52:13.348Z,3.07
2023-05-11T11:54:42.049Z,2.67
2023-05-11T11:57:28.403Z,3.10
2023-05-11T11:59:56.684Z,2.70
2023-05-11T12:02:24.659Z,3.27
2023-05-11T12:04:58.013Z,2.80
2023-05-11T12:07:26.739Z,3.87
2023-05-11T12:09:54.520Z,3.20
2023-05-11T12:12:22.543Z,2.90
2023-05-11T12:14:50.345Z,2.33
2023-05-11T12:17:28.497Z,2.37
2023-05-11T12:20:12.022Z,2.13
2023-05-11T12:22:40.507Z,3.10
2023-05-11T12:25:08.825Z,3.00
2023-05-11T12:27:36.820Z,2.73
2023-05-11T12:30:04.981Z,2.60
2023-05-11T12:32:32.992Z,2.60
2023-05-11T12:35:04.424Z,2.37
2023-05-11T12:37:33.106Z,2.63
2023-05-11T12:40:01.239Z,2.87
2023-05-11T12:42:29.350Z,2.83
2023-05-11T12:44:57.304Z,3.00
2023-05-11T12:47:25.373Z,3.30
2023-05-11T12:49:53.572Z,2.40
2023-05-11T12:52:24.261Z,2.50
2023-05-11T12:54:52.450Z,2.40
2023-05-11T12:57:24.830Z,3.30
2023-05-11T13:00:07.088Z,3.03
2023-05-11T13:02:35.102Z,2.63
2023-05-11T13:05:11.396Z,2.77
2023-05-11T13:07:40.614Z,2.80
2023-05-11T13:10:08.977Z,2.73
2023-05-11T13:12:37.402Z,2.57
2023-05-11T13:15:06.601Z,2.20
2023-05-11T13:17:35.536Z,2.70
2023-05-11T13:20:30.646Z,2.73
2023-05-11T13:23:07.221Z,2.87
2023-05-11T13:25:35.845Z,2.90
2023-05-11T13:28:03.863Z,3.00
2023-05-11T13:30:34.706Z,2.30
2023-05-11T13:33:03.187Z,2.20
2023-05-11T13:35:31.339Z,2.53
2023-05-11T13:37:59.503Z,2.50
2023-05-11T13:40:29.148Z,3.23
2023-05-11T13:42:57.080Z,2.47
2023-05-11T13:45:24.937Z,2.40
2023-05-11T13:47:53.025Z,3.47
2023-05-11T13:50:20.731Z,2.90
2023-05-11T13:52:48.631Z,2.60
2023-05-11T13:55:16.717Z,2.90
2023-05-11T13:57:46.003Z,3.30
2023-05-11T14:00:14.983Z,3.00
2023-05-11T14:02:44.873Z,3.13
2023-05-11T14:05:13.043Z,3.40
2023-05-11T14:07:46.912Z,2.60
2023-05-11T14:10:16.421Z,2.97
2023-05-11T14:12:44.128Z,2.50
2023-05-11T14:15:13.649Z,3.10
2023-05-11T14:17:43.427Z,3.30
2023-05-11T14:20:12.218Z,3.50
2023-05-11T14:22:40.595Z,3.10
2023-05-11T14:25:09.103Z,2.90
2023-05-11T14:27:36.864Z,3.30
2023-05-11T14:30:04.859Z,3.50
2023-05-11T14:32:34.264Z,3.00
2023-05-11T14:35:02.599Z,2.60
2023-05-11T14:37:30.614Z,2.47
2023-05-11T14:39:59.093Z,3.00
2023-05-11T14:42:26.821Z,2.47
2023-05-11T14:44:54.894Z,2.83
2023-05-11T14:47:22.592Z,3.10
2023-05-11T14:49:52.011Z,2.77
2023-05-11T14:52:20.011Z,3.10
2023-05-11T14:54:47.989Z,3.10
2023-05-11T14:57:15.898Z,2.73
2023-05-11T14:59:55.343Z,2.87
2023-05-11T15:02:27.312Z,2.80
2023-05-11T15:04:56.760Z,2.60
2023-05-11T15:07:24.862Z,2.53
2023-05-11T15:09:52.856Z,2.60
2023-05-11T15:12:20.706Z,2.17
2023-05-11T15:14:48.507Z,2.67
2023-05-11T15:17:16.748Z,2.70
2023-05-11T15:19:44.603Z,2.83
2023-05-11T15:22:14.147Z,2.80
2023-05-11T15:24:42.450Z,2.53
2023-05-11T15:27:10.447Z,2.70
2023-05-11T15:29:38.634Z,2.50
2023-05-11T15:32:07.003Z,3.40
2023-05-11T15:34:44.394Z,3.57
2023-05-11T15:37:23.105Z,2.80
2023-05-11T15:39:51.024Z,3.57
2023-05-11T15:42:18.713Z,4.00
2023-05-11T15:44:47.346Z,2.90
2023-05-11T15:47:15.074Z,2.90
2023-05-11T15:49:43.218Z,2.77
2023-05-11T15:52:11.583Z,3.17
2023-05-11T15:54:40.871Z,3.17
2023-05-11T15:57:08.793Z,3.00
2023-05-11T15:59:38.100Z,2.90
2023-05-11T16:02:06.358Z,2.90
2023-05-11T16:04:34.362Z,2.93
2023-05-11T16:07:02.513Z,2.80
2023-05-11T16:09:30.424Z,2.77
2023-05-11T16:12:00.183Z,3.83
2023-05-11T16:14:27.920Z,3.70
2023-05-11T16:16:56.402Z,3.20
2023-05-11T16:19:24.383Z,3.80
2023-05-11T16:21:52.694Z,3.27
2023-05-11T16:24:20.664Z,2.53
2023-05-11T16:26:48.896Z,2.93
2023-05-11T16:29:18.405Z,3.13
2023-05-11T16:31:46.272Z,2.80
2023-05-11T16:34:14.666Z,3.10
2023-05-11T16:36:43.477Z,3.00
2023-05-11T16:39:11.448Z,3.00
2023-05-11T16:41:39.976Z,3.40
2023-05-11T16:44:08.021Z,2.90
2023-05-11T16:46:37.371Z,3.80
2023-05-11T16:49:05.338Z,3.00
2023-05-11T16:51:34.063Z,3.50
2023-05-11T16:54:01.949Z,3.20
2023-05-11T16:56:30.072Z,3.40
2023-05-11T16:58:57.826Z,3.30
2023-05-11T17:01:26.089Z,2.80
2023-05-11T17:03:55.313Z,2.70
2023-05-11T17:06:24.736Z,3.33
2023-05-11T17:08:55.270Z,2.93
2023-05-11T17:11:23.662Z,3.30
2023-05-11T17:13:51.968Z,2.83
2023-05-11T17:16:19.849Z,3.13
2023-05-11T17:18:48.018Z,2.93
2023-05-11T17:21:17.660Z,3.37
2023-05-11T17:23:46.099Z,2.90
2023-05-11T17:26:14.012Z,3.57
2023-05-11T17:28:42.567Z,3.07
2023-05-11T17:31:11.522Z,2.73
2023-05-11T17:33:39.797Z,3.67
2023-05-11T17:36:08.009Z,3.70
2023-05-11T17:38:38.554Z,3.30
2023-05-11T17:41:06.747Z,3.70
2023-05-11T17:43:34.691Z,3.93
2023-05-11T17:46:04.069Z,3.10
2023-05-11T17:48:33.054Z,4.20
2023-05-11T17:51:01.416Z,5.57
2023-05-11T17:53:29.667Z,3.10
2023-05-11T17:56:00.304Z,4.10
2023-05-11T17:58:28.173Z,3.60
2023-05-11T18:00:55.974Z,4.30
2023-05-11T18:03:24.242Z,3.80
2023-05-11T18:05:52.571Z,3.37
2023-05-11T18:08:20.429Z,5.30
2023-05-11T18:10:48.525Z,5.10
2023-05-11T18:13:18.022Z,4.93
2023-05-11T18:15:46.105Z,4.40
2023-05-11T18:18:14.500Z,3.77
2023-05-11T18:20:47.057Z,4.60
2023-05-11T18:23:15.004Z,4.20
2023-05-11T18:25:43.959Z,4.00
2023-05-11T18:28:12.044Z,3.80
2023-05-11T18:30:41.119Z,4.83
2023-05-11T18:33:08.949Z,5.13
2023-05-11T18:35:39.726Z,4.73
2023-05-11T18:38:07.758Z,6.10
2023-05-11T18:40:35.666Z,4.47
2023-05-11T18:43:04.016Z,5.10
2023-05-11T18:45:33.026Z,6.70
2023-05-11T18:48:02.430Z,10.63
2023-05-11T18:50:30.886Z,5.17
2023-05-11T18:52:58.653Z,7.07
2023-05-11T18:55:29.095Z,8.10
2023-05-11T18:58:00.461Z,5.63
2023-05-11T19:00:28.796Z,6.33
2023-05-11T19:02:56.621Z,5.00
2023-05-11T19:05:27.039Z,5.90
2023-05-11T19:07:54.850Z,4.83
2023-05-11T19:10:24.416Z,4.17
2023-05-11T19:12:53.258Z,8.30
2023-05-11T19:15:20.918Z,8.40
2023-05-11T19:17:49.004Z,6.63
2023-05-11T19:20:17.140Z,5.73
2023-05-11T19:22:46.944Z,8.13
2023-05-11T19:25:14.889Z,19.63
2023-05-11T19:27:42.954Z,11.97
2023-05-11T19:30:10.937Z,6.77
2023-05-11T19:32:39.112Z,6.80
2023-05-11T19:35:11.089Z,5.73
2023-05-11T19:38:03.120Z,9.80
2023-05-11T19:43:03.894Z,8.77
2023-05-11T19:45:33.129Z,7.20
2023-05-11T19:48:03.195Z,5.60
2023-05-11T19:50:30.920Z,5.50
2023-05-11T19:52:58.604Z,5.87
2023-05-11T19:55:27.932Z,6.03
2023-05-11T19:57:55.894Z,7.13
2023-05-11T20:00:25.213Z,6.73
2023-05-11T20:02:53.765Z,13.70
2023-05-11T20:05:21.680Z,7.07
2023-05-11T20:07:51.100Z,6.27
2023-05-11T20:10:19.104Z,7.17
2023-05-11T20:12:48.425Z,6.40
2023-05-11T20:15:17.941Z,7.27
2023-05-11T20:17:45.792Z,5.60
2023-05-11T20:20:13.701Z,5.07
2023-05-11T20:22:41.388Z,5.30
2023-05-11T20:25:17.556Z,5.00
2023-05-11T20:27:46.127Z,5.40
2023-05-11T20:30:15.712Z,5.50
2023-05-11T20:34:06.718Z,6.77
2023-05-11T20:35:32.795Z,10.40
2023-05-11T20:38:01.215Z,5.33
2023-05-11T20:40:28.907Z,6.20
2023-05-11T20:42:57.388Z,6.80
2023-05-11T20:45:26.776Z,7.63
2023-05-11T20:47:55.106Z,6.20
2023-05-11T20:50:23.384Z,6.60
2023-05-11T20:52:51.206Z,8.50
2023-05-11T20:55:19.460Z,5.60
2023-05-11T20:57:47.468Z,5.83
2023-05-11T21:00:16.169Z,5.50
2023-05-11T21:02:46.832Z,6.70
2023-05-11T21:05:14.713Z,5.43
2023-05-11T21:07:42.786Z,5.97
2023-05-11T21:10:12.213Z,5.70
2023-05-11T21:12:40.337Z,6.80
2023-05-11T21:15:08.762Z,10.10
2023-05-11T21:17:37.116Z,7.37
2023-05-11T21:20:06.829Z,6.40
2023-05-11T21:22:35.124Z,7.40
2023-05-11T21:25:03.467Z,7.40
2023-05-11T21:27:31.668Z,7.70
2023-05-11T21:29:59.720Z,7.30
2023-05-11T21:32:27.906Z,9.83
2023-05-11T21:34:55.618Z,7.90
2023-05-11T21:37:24.654Z,7.47
2023-05-11T21:39:53.231Z,6.53
2023-05-11T21:42:21.741Z,6.83
2023-05-11T21:44:49.487Z,5.47
2023-05-11T21:47:17.497Z,6.60
2023-05-11T21:49:45.175Z,6.20
2023-05-11T21:52:13.129Z,5.90
2023-05-11T21:54:42.596Z,6.67
2023-05-11T21:57:10.355Z,6.33
2023-05-11T21:59:38.405Z,6.07
2023-05-11T22:02:07.055Z,6.53
2023-05-11T22:04:35.370Z,7.70
2023-05-11T22:07:03.431Z,7.03
2023-05-11T22:09:31.548Z,6.90
2023-05-11T22:12:01.201Z,6.70
2023-05-11T22:14:29.029Z,6.70
2023-05-11T22:16:56.746Z,11.37
2023-05-11T22:19:24.827Z,7.60
2023-05-11T22:21:53.358Z,5.90
2023-05-11T22:24:23.029Z,6.87
2023-05-11T22:26:51.130Z,7.40
2023-05-11T22:29:20.220Z,6.60
2023-05-11T22:31:48.980Z,6.57
2023-05-11T22:34:17.405Z,6.10
2023-05-11T22:36:45.665Z,6.37
2023-05-11T22:39:13.851Z,6.27
2023-05-11T22:41:42.047Z,6.40
2023-05-11T22:44:09.917Z,7.30
2023-05-11T22:46:39.641Z,6.60
2023-05-11T22:49:08.327Z,7.07
2023-05-11T22:51:36.188Z,6.50
2023-05-11T22:54:04.478Z,7.13
2023-05-11T22:56:32.431Z,7.27
2023-05-11T22:59:00.325Z,7.20
2023-05-11T23:01:28.212Z,6.20
2023-05-11T23:03:57.747Z,6.93
2023-05-11T23:06:25.506Z,7.60
2023-05-11T23:08:53.404Z,6.63
2023-05-11T23:11:21.478Z,6.10
2023-05-11T23:13:49.268Z,7.70
2023-05-11T23:16:17.694Z,6.97
2023-05-11T23:18:46.237Z,6.90
2023-05-11T23:21:15.507Z,6.63
2023-05-11T23:23:43.657Z,6.90
2023-05-11T23:26:12.045Z,7.73
2023-05-11T23:28:39.890Z,6.60
2023-05-11T23:31:07.904Z,6.80
2023-05-11T23:33:35.841Z,7.23
2023-05-11T23:36:03.743Z,7.10
2023-05-11T23:38:32.812Z,7.03
2023-05-11T23:41:01.345Z,7.30
2023-05-11T23:43:30.300Z,6.60
2023-05-11T23:45:58.477Z,7.00
2023-05-11T23:48:26.361Z,8.20
2023-05-11T23:50:54.005Z,6.90
2023-05-11T23:53:21.699Z,7.80
2023-05-11T23:55:51.360Z,7.53
2023-05-11T23:58:19.281Z,7.30
